createdAt,value
2023-02-22T00:01:51.151Z,39.54
2023-02-22T00:04:39.742Z,39.60
2023-02-22T00:07:26.077Z,39.64
2023-02-22T00:10:14.604Z,39.72
2023-02-22T00:13:00.647Z,39.68
2023-02-22T00:15:46.443Z,39.84
2023-02-22T00:18:32.238Z,40.02
2023-02-22T00:21:18.515Z,40.18
2023-02-22T00:24:22.977Z,39.78
2023-02-22T00:27:09.159Z,39.91
2023-02-22T00:29:56.630Z,39.95
2023-02-22T00:32:43.204Z,40.03
2023-02-22T00:35:30.620Z,40.06
2023-02-22T00:38:18.596Z,39.63
2023-02-22T00:41:04.809Z,39.81
2023-02-22T00:43:50.888Z,39.89
2023-02-22T00:46:38.609Z,39.94
2023-02-22T00:49:26.147Z,40.53
2023-02-22T00:52:12.484Z,40.37
2023-02-22T00:55:00.065Z,40.00
2023-02-22T00:57:45.929Z,40.61
2023-02-22T01:00:33.519Z,40.21
2023-02-22T01:03:20.974Z,39.96
2023-02-22T01:06:07.765Z,40.34
2023-02-22T01:08:53.935Z,40.51
2023-02-22T01:11:41.558Z,40.13
2023-02-22T01:14:28.147Z,40.64
2023-02-22T01:17:14.337Z,40.75
2023-02-22T01:20:00.004Z,40.99
2023-02-22T01:22:48.491Z,40.35
2023-02-22T01:25:35.431Z,40.55
2023-02-22T01:28:22.597Z,40.57
2023-02-22T01:31:09.167Z,40.69
2023-02-22T01:33:55.129Z,40.31
2023-02-22T01:36:41.324Z,40.49
2023-02-22T01:39:28.637Z,40.50
2023-02-22T01:42:14.496Z,40.99
2023-02-22T01:45:32.773Z,41.18
2023-02-22T01:48:25.013Z,40.65
2023-02-22T01:51:20.854Z,41.57
2023-02-22T01:54:11.045Z,40.83
2023-02-22T01:57:06.144Z,40.79
2023-02-22T01:59:56.862Z,40.89
2023-02-22T02:02:49.476Z,41.01
2023-02-22T02:05:39.834Z,40.77
2023-02-22T02:08:36.150Z,41.04
2023-02-22T02:11:25.596Z,41.06
2023-02-22T02:14:12.793Z,41.66
2023-02-22T02:17:01.567Z,41.48
2023-02-22T02:20:01.289Z,41.30
2023-02-22T02:23:06.339Z,41.69
2023-02-22T02:26:23.046Z,41.42
2023-02-22T02:29:18.236Z,41.34
2023-02-22T02:32:10.344Z,41.73
2023-02-22T02:34:57.725Z,41.82
2023-02-22T02:38:15.001Z,41.49
2023-02-22T02:41:32.374Z,41.56
2023-02-22T02:44:27.642Z,41.95
2023-02-22T02:47:24.025Z,41.45
2023-02-22T02:50:47.179Z,41.72
2023-02-22T02:53:36.513Z,41.72
2023-02-22T02:56:23.589Z,41.50
2023-02-22T02:59:27.641Z,42.18
2023-02-22T03:02:25.761Z,41.53
2023-02-22T03:05:11.678Z,42.22
2023-02-22T03:08:34.533Z,41.92
2023-02-22T03:11:23.879Z,41.88
2023-02-22T03:14:27.628Z,41.93
2023-02-22T03:17:41.468Z,41.99
2023-02-22T03:20:32.443Z,42.03
2023-02-22T03:23:43.696Z,42.39
2023-02-22T03:26:36.418Z,41.96
2023-02-22T03:29:25.135Z,42.02
2023-02-22T03:32:16.817Z,42.44
2023-02-22T03:35:13.115Z,42.17
2023-02-22T03:38:02.991Z,42.27
2023-02-22T03:40:52.259Z,42.12
2023-02-22T03:43:42.017Z,42.12
2023-02-22T03:46:33.060Z,42.47
2023-02-22T03:49:40.614Z,42.67
2023-02-22T03:52:26.549Z,42.82
2023-02-22T03:55:13.218Z,42.84
2023-02-22T03:58:00.604Z,42.63
2023-02-22T04:00:53.124Z,42.48
2023-02-22T04:03:40.389Z,42.64
2023-02-22T04:06:27.499Z,42.60
2023-02-22T04:09:14.912Z,42.65
2023-02-22T04:12:00.727Z,42.78
2023-02-22T04:14:47.770Z,42.52
2023-02-22T04:17:34.005Z,42.78
2023-02-22T04:20:25.627Z,42.67
2023-02-22T04:23:17.047Z,43.04
2023-02-22T04:26:03.620Z,43.15
2023-02-22T04:28:50.262Z,43.07
2023-02-22T04:31:38.255Z,43.04
2023-02-22T04:34:25.095Z,42.86
2023-02-22T04:37:12.374Z,42.91
2023-02-22T04:39:58.263Z,42.94
2023-02-22T04:42:44.179Z,43.22
2023-02-22T04:45:30.745Z,42.94
2023-02-22T04:48:16.711Z,43.19
2023-02-22T04:51:02.680Z,43.16
2023-02-22T04:53:51.153Z,43.09
2023-02-22T04:56:37.467Z,43.37
2023-02-22T04:59:24.787Z,43.11
2023-02-22T05:02:18.928Z,43.13
2023-02-22T05:05:05.663Z,43.12
2023-02-22T05:07:51.453Z,42.96
2023-02-22T05:10:37.416Z,43.09
2023-02-22T05:13:23.302Z,43.49
2023-02-22T05:16:09.065Z,43.17
2023-02-22T05:18:54.725Z,43.24
2023-02-22T05:21:40.455Z,43.53
2023-02-22T05:24:26.188Z,43.21
2023-02-22T05:27:12.220Z,43.28
2023-02-22T05:29:57.925Z,43.57
2023-02-22T05:32:46.107Z,43.58
2023-02-22T05:35:32.778Z,43.35
2023-02-22T05:38:18.440Z,43.49
2023-02-22T05:41:04.466Z,43.49
2023-02-22T05:43:50.733Z,43.65
2023-02-22T05:46:36.800Z,43.52
2023-02-22T05:49:23.211Z,44.07
2023-02-22T05:52:08.996Z,44.02
2023-02-22T05:54:54.952Z,43.58
2023-02-22T05:57:41.290Z,43.72
2023-02-22T06:00:30.139Z,43.96
2023-02-22T06:03:16.151Z,44.05
2023-02-22T06:06:02.337Z,43.91
2023-02-22T06:08:48.172Z,43.88
2023-02-22T06:11:34.542Z,43.81
2023-02-22T06:14:20.335Z,43.99
2023-02-22T06:17:06.661Z,44.19
2023-02-22T06:19:52.983Z,44.32
2023-02-22T06:22:41.275Z,43.92
2023-02-22T06:25:31.326Z,44.47
2023-02-22T06:28:17.170Z,44.48
2023-02-22T06:31:03.313Z,44.63
2023-02-22T06:33:48.953Z,44.66
2023-02-22T06:36:34.790Z,44.12
2023-02-22T06:39:20.747Z,44.33
2023-02-22T06:42:06.582Z,44.32
2023-02-22T06:44:52.251Z,44.41
2023-02-22T06:47:40.319Z,44.35
2023-02-22T06:50:32.011Z,44.67
2023-02-22T06:53:18.732Z,44.68
2023-02-22T06:56:05.055Z,44.57
2023-02-22T06:58:51.165Z,44.42
2023-02-22T07:01:37.020Z,44.39
2023-02-22T07:04:22.777Z,44.36
2023-02-22T07:07:08.503Z,44.80
2023-02-22T07:09:54.338Z,44.50
2023-02-22T07:12:40.160Z,44.81
2023-02-22T07:15:27.949Z,44.69
2023-02-22T07:18:14.194Z,44.83
2023-02-22T07:21:00.117Z,44.65
2023-02-22T07:23:56.314Z,44.63
2023-02-22T07:26:42.998Z,44.63
2023-02-22T07:29:28.834Z,45.18
2023-02-22T07:32:14.657Z,45.18
2023-02-22T07:35:02.930Z,45.31
2023-02-22T07:37:48.834Z,44.94
2023-02-22T07:40:35.518Z,44.91
2023-02-22T07:43:24.015Z,44.95
2023-02-22T07:46:11.578Z,44.86
2023-02-22T07:48:57.301Z,44.74
2023-02-22T07:51:43.246Z,45.78
2023-02-22T07:54:28.933Z,45.24
2023-02-22T07:57:15.678Z,44.70
2023-02-22T08:00:02.025Z,44.73
2023-02-22T08:02:48.079Z,45.04
2023-02-22T08:05:34.869Z,45.19
2023-02-22T08:08:20.959Z,44.81
2023-02-22T08:11:07.107Z,44.98
2023-02-22T08:13:53.063Z,44.92
2023-02-22T08:16:38.730Z,45.02
2023-02-22T08:19:24.692Z,44.90
2023-02-22T08:22:10.522Z,44.86
2023-02-22T08:24:56.327Z,45.37
2023-02-22T08:27:43.845Z,44.83
2023-02-22T08:30:31.411Z,44.73
2023-02-22T08:33:19.819Z,45.04
2023-02-22T08:36:06.181Z,44.75
2023-02-22T08:38:52.354Z,44.68
2023-02-22T08:41:38.178Z,44.58
2023-02-22T08:44:24.530Z,44.51
2023-02-22T08:47:10.407Z,44.61
2023-02-22T08:49:56.232Z,44.27
2023-02-22T08:52:42.138Z,44.44
2023-02-22T08:55:32.322Z,44.28
2023-02-22T08:58:18.306Z,44.38
2023-02-22T09:01:04.309Z,44.04
2023-02-22T09:03:51.458Z,44.05
2023-02-22T09:06:37.409Z,44.18
2023-02-22T09:09:23.555Z,43.95
2023-02-22T09:12:10.080Z,43.83
2023-02-22T09:14:55.726Z,44.02
2023-02-22T09:17:41.520Z,44.06
2023-02-22T09:20:27.792Z,43.91
2023-02-22T09:23:14.582Z,43.90
2023-02-22T09:26:01.042Z,44.03
2023-02-22T09:28:46.827Z,43.66
2023-02-22T09:31:35.812Z,43.58
2023-02-22T09:34:29.596Z,43.06
2023-02-22T09:37:15.483Z,43.44
2023-02-22T09:40:01.482Z,43.41
2023-02-22T09:42:57.049Z,43.39
2023-02-22T09:45:49.060Z,43.66
2023-02-22T09:48:36.699Z,43.48
2023-02-22T09:51:26.676Z,43.50
2023-02-22T09:54:27.238Z,42.96
2023-02-22T09:57:16.417Z,42.98
2023-02-22T10:00:13.734Z,42.92
2023-02-22T10:03:23.007Z,42.06
2023-02-22T10:06:15.017Z,42.85
2023-02-22T10:09:08.206Z,42.57
2023-02-22T10:11:58.585Z,42.26
2023-02-22T10:14:55.525Z,42.04
2023-02-22T10:17:48.153Z,42.01
2023-02-22T10:20:52.215Z,42.44
2023-02-22T10:24:04.564Z,42.01
2023-02-22T10:26:51.269Z,42.00
2023-02-22T10:29:47.187Z,41.74
2023-02-22T10:32:43.382Z,41.38
2023-02-22T10:35:33.743Z,41.31
2023-02-22T10:38:28.321Z,41.05
2023-02-22T10:41:24.363Z,40.52
2023-02-22T10:44:10.522Z,41.29
2023-02-22T10:46:56.639Z,41.16
2023-02-22T10:49:55.712Z,40.84
2023-02-22T10:52:41.870Z,40.96
2023-02-22T10:55:27.821Z,40.61
2023-02-22T10:58:14.041Z,40.69
2023-02-22T11:01:00.203Z,40.90
2023-02-22T11:03:46.158Z,40.69
2023-02-22T11:06:33.917Z,40.60
2023-02-22T11:09:24.603Z,40.15
2023-02-22T11:12:15.646Z,40.47
2023-02-22T11:15:24.348Z,40.10
2023-02-22T11:18:23.240Z,40.40
2023-02-22T11:21:11.707Z,39.78
2023-02-22T11:24:09.587Z,39.79
2023-02-22T11:26:58.995Z,39.84
2023-02-22T11:29:50.893Z,39.82
2023-02-22T11:32:43.510Z,39.69
2023-02-22T11:35:29.313Z,39.65
2023-02-22T11:38:29.763Z,39.29
2023-02-22T11:41:19.353Z,39.52
2023-02-22T11:44:29.764Z,39.57
2023-02-22T11:47:15.848Z,39.44
2023-02-22T11:50:02.379Z,39.56
2023-02-22T11:52:52.826Z,39.51
2023-02-22T11:55:45.068Z,38.98
2023-02-22T11:58:48.614Z,39.41
2023-02-22T12:01:37.639Z,39.05
2023-02-22T12:04:44.811Z,38.80
2023-02-22T12:07:52.311Z,38.46
2023-02-22T12:11:10.222Z,39.25
2023-02-22T12:13:56.291Z,38.61
2023-02-22T12:16:45.073Z,38.80
2023-02-22T12:19:36.205Z,38.29
2023-02-22T12:22:28.052Z,38.12
2023-02-22T12:25:26.993Z,38.05
2023-02-22T12:28:24.937Z,38.03
2023-02-22T12:31:19.376Z,37.25
2023-02-22T12:34:41.407Z,32.88
2023-02-22T12:37:35.225Z,37.45
2023-02-22T12:40:31.140Z,37.14
2023-02-22T12:43:34.215Z,37.57
2023-02-22T12:46:21.853Z,37.40
2023-02-22T12:49:20.870Z,36.95
2023-02-22T12:52:35.349Z,37.25
2023-02-22T12:55:25.548Z,36.93
2023-02-22T12:58:31.467Z,37.03
2023-02-22T13:01:20.419Z,36.83
2023-02-22T13:04:20.180Z,37.11
2023-02-22T13:07:48.450Z,34.13
2023-02-22T13:10:53.411Z,36.53
2023-02-22T13:14:16.458Z,36.70
2023-02-22T13:17:27.422Z,36.90
2023-02-22T13:20:43.775Z,36.40
2023-02-22T13:23:46.236Z,36.56
2023-02-22T13:26:43.951Z,35.24
2023-02-22T13:29:35.334Z,36.12
2023-02-22T13:32:25.105Z,36.32
2023-02-22T13:35:20.539Z,35.90
2023-02-22T13:38:35.742Z,36.12
2023-02-22T13:41:45.139Z,36.10
2023-02-22T13:44:46.262Z,31.77
2023-02-22T13:47:57.977Z,35.83
2023-02-22T13:50:48.838Z,35.60
2023-02-22T13:53:56.077Z,35.83
2023-02-22T13:56:47.145Z,34.90
2023-02-22T13:59:37.206Z,34.23
2023-02-22T14:02:57.834Z,34.40
2023-02-22T14:05:46.798Z,33.64
2023-02-22T14:08:33.792Z,33.18
2023-02-22T14:11:19.769Z,32.70
2023-02-22T14:14:05.615Z,32.47
2023-02-22T14:17:21.991Z,31.98
2023-02-22T14:20:19.589Z,31.75
2023-02-22T14:23:23.747Z,31.90
2023-02-22T14:26:14.238Z,31.85
2023-02-22T14:29:09.110Z,31.57
2023-02-22T14:32:07.395Z,31.83
2023-02-22T14:34:55.083Z,31.99
2023-02-22T14:37:41.560Z,31.98
2023-02-22T14:40:32.048Z,31.78
2023-02-22T14:43:22.817Z,31.97
2023-02-22T14:46:13.375Z,32.22
2023-02-22T14:49:04.335Z,32.02
2023-02-22T14:52:00.044Z,32.08
2023-02-22T14:55:13.779Z,32.35
2023-02-22T14:58:06.145Z,32.14
2023-02-22T15:00:53.865Z,32.40
2023-02-22T15:03:39.654Z,32.51
2023-02-22T15:06:28.735Z,32.44
2023-02-22T15:09:29.225Z,32.50
2023-02-22T15:12:30.028Z,32.40
2023-02-22T15:15:22.114Z,32.33
2023-02-22T15:18:22.171Z,32.61
2023-02-22T15:21:13.492Z,32.50
2023-02-22T15:24:02.077Z,32.79
2023-02-22T15:27:00.854Z,32.82
2023-02-22T15:29:47.510Z,33.04
2023-02-22T15:32:53.394Z,32.67
2023-02-22T15:35:44.301Z,32.73
2023-02-22T15:38:30.975Z,32.89
2023-02-22T15:41:27.991Z,32.72
2023-02-22T15:44:23.166Z,32.97
2023-02-22T15:47:18.070Z,32.63
2023-02-22T15:50:25.927Z,31.29
2023-02-22T15:53:21.021Z,33.07
2023-02-22T15:56:20.407Z,33.09
2023-02-22T15:59:12.885Z,33.13
2023-02-22T16:01:59.757Z,33.37
2023-02-22T16:04:54.542Z,33.41
2023-02-22T16:07:50.121Z,33.18
2023-02-22T16:10:37.056Z,33.27
2023-02-22T16:13:32.027Z,32.90
2023-02-22T16:16:20.965Z,33.09
2023-02-22T16:19:32.893Z,33.09
2023-02-22T16:22:29.710Z,33.02
2023-02-22T16:25:18.946Z,33.12
2023-02-22T16:28:30.849Z,33.44
2023-02-22T16:31:17.435Z,33.14
2023-02-22T16:34:06.154Z,33.24
2023-02-22T16:36:52.280Z,33.28
2023-02-22T16:39:38.979Z,33.28
2023-02-22T16:42:25.666Z,33.15
2023-02-22T16:45:16.437Z,33.05
2023-02-22T16:48:21.410Z,33.43
2023-02-22T16:51:10.725Z,33.27
2023-02-22T16:53:56.754Z,33.22
2023-02-22T16:56:42.660Z,33.37
2023-02-22T16:59:29.262Z,33.29
2023-02-22T17:02:15.603Z,33.40
2023-02-22T17:05:01.790Z,33.18
2023-02-22T17:07:47.859Z,33.40
2023-02-22T17:10:34.309Z,33.54
2023-02-22T17:13:26.652Z,33.66
2023-02-22T17:16:16.771Z,33.64
2023-02-22T17:19:05.106Z,33.72
2023-02-22T17:21:51.006Z,33.73
2023-02-22T17:24:39.272Z,33.38
2023-02-22T17:27:25.401Z,33.57
2023-02-22T17:30:13.996Z,33.61
2023-02-22T17:33:03.939Z,33.81
2023-02-22T17:35:50.081Z,33.74
2023-02-22T17:38:36.570Z,33.77
2023-02-22T17:41:22.639Z,34.13
2023-02-22T17:44:08.795Z,34.05
2023-02-22T17:46:54.716Z,33.62
2023-02-22T17:49:40.791Z,33.71
2023-02-22T17:52:30.236Z,33.77
2023-02-22T17:55:17.041Z,34.19
2023-02-22T17:58:03.100Z,33.81
2023-02-22T18:00:50.370Z,33.73
2023-02-22T18:03:40.217Z,33.98
2023-02-22T18:06:30.163Z,34.26
2023-02-22T18:09:17.839Z,33.75
2023-02-22T18:12:04.194Z,33.99
2023-02-22T18:14:50.158Z,33.98
2023-02-22T18:17:36.988Z,34.52
2023-02-22T18:20:38.311Z,34.21
2023-02-22T18:23:27.897Z,34.29
2023-02-22T18:26:21.593Z,34.23
2023-02-22T18:29:07.862Z,34.30
2023-02-22T18:31:54.036Z,34.13
2023-02-22T18:34:40.249Z,34.48
2023-02-22T18:37:28.350Z,34.17
2023-02-22T18:40:14.294Z,34.35
2023-02-22T18:43:00.420Z,34.45
2023-02-22T18:45:46.407Z,34.53
2023-02-22T18:48:32.914Z,34.51
2023-02-22T18:51:18.802Z,34.48
2023-02-22T18:54:04.722Z,34.50
2023-02-22T18:56:50.615Z,34.55
2023-02-22T18:59:38.116Z,34.75
2023-02-22T19:02:25.554Z,34.61
2023-02-22T19:05:12.758Z,34.73
2023-02-22T19:07:59.078Z,35.00
2023-02-22T19:10:45.283Z,34.74
2023-02-22T19:13:32.065Z,35.04
2023-02-22T19:16:22.877Z,34.85
2023-02-22T19:19:09.584Z,35.00
2023-02-22T19:21:56.479Z,34.85
2023-02-22T19:24:45.744Z,35.13
2023-02-22T19:27:34.048Z,34.89
2023-02-22T19:30:20.256Z,34.91
2023-02-22T19:33:06.437Z,35.30
2023-02-22T19:35:52.432Z,34.77
2023-02-22T19:38:39.344Z,34.95
2023-02-22T19:41:25.459Z,35.38
2023-02-22T19:44:12.385Z,35.22
2023-02-22T19:46:58.120Z,35.34
2023-02-22T19:49:43.957Z,35.43
2023-02-22T19:52:29.910Z,35.14
2023-02-22T19:55:15.943Z,35.21
2023-02-22T19:58:02.101Z,35.60
2023-02-22T20:00:47.959Z,35.53
2023-02-22T20:03:35.300Z,35.59
2023-02-22T20:06:23.138Z,35.66
2023-02-22T20:09:12.501Z,35.62
2023-02-22T20:11:58.733Z,35.51
2023-02-22T20:14:46.320Z,35.62
2023-02-22T20:17:32.664Z,36.03
2023-02-22T20:20:18.799Z,36.65
2023-02-22T20:23:07.601Z,36.29
2023-02-22T20:25:55.120Z,36.21
2023-02-22T20:28:41.363Z,36.42
2023-02-22T20:31:29.631Z,36.14
2023-02-22T20:34:15.620Z,36.46
2023-02-22T20:37:02.486Z,36.19
2023-02-22T20:39:50.763Z,36.46
2023-02-22T20:42:36.888Z,36.38
2023-02-22T20:45:22.979Z,36.56
2023-02-22T20:48:09.232Z,36.79
2023-02-22T20:50:55.214Z,36.14
2023-02-22T20:53:42.106Z,36.48
2023-02-22T20:56:30.167Z,36.76
2023-02-22T20:59:17.881Z,36.98
2023-02-22T21:02:04.252Z,37.10
2023-02-22T21:04:50.161Z,36.92
2023-02-22T21:07:35.978Z,36.98
2023-02-22T21:10:21.880Z,36.93
2023-02-22T21:13:11.243Z,36.86
2023-02-22T21:15:57.565Z,37.08
2023-02-22T21:18:43.532Z,37.10
2023-02-22T21:21:30.045Z,36.95
2023-02-22T21:24:16.005Z,36.86
2023-02-22T21:27:02.597Z,36.68
2023-02-22T21:29:48.626Z,37.31
2023-02-22T21:32:35.631Z,36.93
2023-02-22T21:35:23.137Z,37.44
2023-02-22T21:38:14.463Z,37.10
2023-02-22T21:41:03.322Z,37.35
2023-02-22T21:43:53.177Z,37.18
2023-02-22T21:46:39.439Z,37.45
2023-02-22T21:49:25.426Z,37.23
2023-02-22T21:52:11.272Z,37.52
2023-02-22T21:54:57.196Z,37.67
2023-02-22T21:57:43.076Z,37.69
2023-02-22T22:00:29.264Z,37.79
2023-02-22T22:03:20.506Z,37.94
2023-02-22T22:06:13.596Z,37.76
2023-02-22T22:09:00.189Z,37.54
2023-02-22T22:11:50.276Z,37.78
2023-02-22T22:14:37.484Z,37.71
2023-02-22T22:17:23.999Z,37.65
2023-02-22T22:20:11.692Z,37.85
2023-02-22T22:22:57.476Z,38.11
2023-02-22T22:25:43.781Z,37.95
2023-02-22T22:28:31.600Z,38.03
2023-02-22T22:31:19.670Z,38.05
2023-02-22T22:34:06.389Z,38.30
2023-02-22T22:36:52.785Z,38.41
2023-02-22T22:39:38.893Z,38.47
2023-02-22T22:42:25.047Z,38.39
2023-02-22T22:45:11.938Z,38.57
2023-02-22T22:47:57.703Z,38.11
2023-02-22T22:50:46.542Z,38.38
2023-02-22T22:53:34.163Z,38.28
2023-02-22T22:56:29.153Z,38.52
2023-02-22T22:59:15.578Z,38.60
2023-02-22T23:02:04.539Z,38.37
2023-02-22T23:04:51.718Z,38.32
2023-02-22T23:07:37.978Z,38.83
2023-02-22T23:10:30.096Z,38.92
2023-02-22T23:13:16.273Z,38.66
2023-02-22T23:16:02.201Z,38.95
2023-02-22T23:18:47.912Z,38.65
2023-02-22T23:21:35.930Z,39.16
2023-02-22T23:24:22.074Z,38.82
2023-02-22T23:27:08.161Z,39.16
2023-02-22T23:29:54.097Z,38.97
2023-02-22T23:32:41.345Z,39.04
2023-02-22T23:35:27.628Z,39.30
2023-02-22T23:38:13.560Z,39.04
2023-02-22T23:41:03.992Z,39.29
2023-02-22T23:43:51.776Z,38.94
2023-02-22T23:46:41.216Z,39.24
2023-02-22T23:49:35.874Z,39.12
2023-02-22T23:52:24.526Z,39.29
2023-02-22T23:55:10.473Z,39.25
2023-02-22T23:57:59.514Z,39.37
